sensor_id;sensor_type;location;lat;lon;timestamp;pressure;altitude;pressure_sealevel;temperature;humidity
17309;BME280;8772;42.804;23.426;2022-10-18T00:00:10;96151.91;;;5.53;100.00
17309;BME280;8772;42.804;23.426;2022-10-18T00:02:37;96150.47;;;5.55;100.00
17309;BME280;8772;42.804;23.426;2022-10-18T00:05:05;96150.38;;;5.52;100.00
17309;BME280;8772;42.804;23.426;2022-10-18T00:07:31;96145.84;;;5.52;100.00
17309;BME280;8772;42.804;23.426;2022-10-18T00:09:58;96140.78;;;5.47;100.00
17309;BME280;8772;42.804;23.426;2022-10-18T00:12:25;96138.41;;;5.42;100.00
17309;BME280;8772;42.804;23.426;2022-10-18T00:14:54;96142.38;;;5.36;100.00
17309;BME280;8772;42.804;23.426;2022-10-18T00:17:20;96128.28;;;5.32;100.00
17309;BME280;8772;42.804;23.426;2022-10-18T00:19:47;96133.81;;;5.27;100.00
17309;BME280;8772;42.804;23.426;2022-10-18T00:22:14;96125.44;;;5.25;100.00
17309;BME280;8772;42.804;23.426;2022-10-18T00:24:41;96138.59;;;5.22;100.00
17309;BME280;8772;42.804;23.426;2022-10-18T00:27:08;96129.03;;;5.17;100.00
17309;BME280;8772;42.804;23.426;2022-10-18T00:29:35;96121.53;;;5.07;100.00
17309;BME280;8772;42.804;23.426;2022-10-18T00:32:04;96117.16;;;4.99;100.00
17309;BME280;8772;42.804;23.426;2022-10-18T00:34:30;96117.03;;;4.96;100.00
17309;BME280;8772;42.804;23.426;2022-10-18T00:36:57;96114.38;;;4.80;100.00
17309;BME280;8772;42.804;23.426;2022-10-18T00:39:24;96117.81;;;4.69;100.00
17309;BME280;8772;42.804;23.426;2022-10-18T00:41:51;96116.47;;;4.75;100.00
17309;BME280;8772;42.804;23.426;2022-10-18T00:47:23;96120.25;;;4.74;100.00
17309;BME280;8772;42.804;23.426;2022-10-18T00:49:53;96117.59;;;4.74;100.00
17309;BME280;8772;42.804;23.426;2022-10-18T00:52:25;96103.13;;;4.71;100.00
17309;BME280;8772;42.804;23.426;2022-10-18T00:54:54;96105.09;;;4.74;100.00
17309;BME280;8772;42.804;23.426;2022-10-18T00:57:22;96107.41;;;4.76;100.00
17309;BME280;8772;42.804;23.426;2022-10-18T00:59:50;96111.25;;;4.78;100.00
17309;BME280;8772;42.804;23.426;2022-10-18T01:02:18;96112.78;;;4.79;100.00
17309;BME280;8772;42.804;23.426;2022-10-18T01:08:39;96100.09;;;4.57;100.00
17309;BME280;8772;42.804;23.426;2022-10-18T01:11:26;96094.09;;;4.60;100.00
17309;BME280;8772;42.804;23.426;2022-10-18T01:14:02;96097.88;;;4.59;100.00
17309;BME280;8772;42.804;23.426;2022-10-18T01:16:36;96095.53;;;4.58;100.00
17309;BME280;8772;42.804;23.426;2022-10-18T01:19:16;96090.81;;;4.51;100.00
17309;BME280;8772;42.804;23.426;2022-10-18T01:21:47;96088.94;;;4.52;100.00
17309;BME280;8772;42.804;23.426;2022-10-18T01:27:34;96079.06;;;4.37;100.00
17309;BME280;8772;42.804;23.426;2022-10-18T01:30:30;96076.75;;;4.35;100.00
17309;BME280;8772;42.804;23.426;2022-10-18T01:33:02;96074.13;;;4.23;100.00
17309;BME280;8772;42.804;23.426;2022-10-18T01:35:33;96076.44;;;4.25;100.00
17309;BME280;8772;42.804;23.426;2022-10-18T01:38:05;96082.16;;;4.27;100.00
17309;BME280;8772;42.804;23.426;2022-10-18T01:40:36;96078.06;;;4.29;100.00
17309;BME280;8772;42.804;23.426;2022-10-18T01:43:05;96073.97;;;4.32;100.00
17309;BME280;8772;42.804;23.426;2022-10-18T01:45:34;96076.06;;;4.38;100.00
17309;BME280;8772;42.804;23.426;2022-10-18T01:48:02;96082.16;;;4.39;100.00
17309;BME280;8772;42.804;23.426;2022-10-18T01:50:30;96079.16;;;4.28;100.00
17309;BME280;8772;42.804;23.426;2022-10-18T01:52:58;96083.16;;;4.34;100.00
17309;BME280;8772;42.804;23.426;2022-10-18T01:55:28;96084.38;;;4.37;100.00
17309;BME280;8772;42.804;23.426;2022-10-18T01:58:02;96077.50;;;4.36;100.00
17309;BME280;8772;42.804;23.426;2022-10-18T02:00:38;96082.72;;;4.32;100.00
17309;BME280;8772;42.804;23.426;2022-10-18T02:03:11;96077.00;;;4.19;100.00
17309;BME280;8772;42.804;23.426;2022-10-18T02:05:43;96068.59;;;4.17;100.00
17309;BME280;8772;42.804;23.426;2022-10-18T02:08:20;96066.88;;;4.09;100.00
17309;BME280;8772;42.804;23.426;2022-10-18T02:10:54;96078.16;;;3.82;100.00
17309;BME280;8772;42.804;23.426;2022-10-18T02:13:24;96068.66;;;3.81;100.00
17309;BME280;8772;42.804;23.426;2022-10-18T02:15:57;96073.97;;;3.93;100.00
17309;BME280;8772;42.804;23.426;2022-10-18T02:18:28;96076.38;;;3.98;100.00
17309;BME280;8772;42.804;23.426;2022-10-18T02:21:00;96080.97;;;4.01;100.00
17309;BME280;8772;42.804;23.426;2022-10-18T02:23:27;96077.13;;;3.98;100.00
17309;BME280;8772;42.804;23.426;2022-10-18T02:25:54;96071.75;;;3.95;100.00
17309;BME280;8772;42.804;23.426;2022-10-18T02:28:21;96068.19;;;3.79;100.00
17309;BME280;8772;42.804;23.426;2022-10-18T02:30:54;96068.56;;;3.65;100.00
17309;BME280;8772;42.804;23.426;2022-10-18T02:33:32;96073.94;;;3.45;100.00
17309;BME280;8772;42.804;23.426;2022-10-18T02:36:04;96062.47;;;3.53;100.00
17309;BME280;8772;42.804;23.426;2022-10-18T02:38:34;96067.34;;;3.63;100.00
17309;BME280;8772;42.804;23.426;2022-10-18T02:41:03;96055.66;;;3.64;100.00
17309;BME280;8772;42.804;23.426;2022-10-18T02:43:30;96056.00;;;3.74;100.00
17309;BME280;8772;42.804;23.426;2022-10-18T02:45:57;96057.63;;;3.79;100.00
17309;BME280;8772;42.804;23.426;2022-10-18T02:48:25;96055.53;;;3.84;100.00
17309;BME280;8772;42.804;23.426;2022-10-18T02:50:52;96050.22;;;3.96;100.00
17309;BME280;8772;42.804;23.426;2022-10-18T02:53:19;96053.97;;;4.07;100.00
17309;BME280;8772;42.804;23.426;2022-10-18T02:55:45;96052.53;;;4.10;100.00
17309;BME280;8772;42.804;23.426;2022-10-18T02:58:12;96052.94;;;4.23;100.00
17309;BME280;8772;42.804;23.426;2022-10-18T03:00:40;96061.53;;;4.32;100.00
17309;BME280;8772;42.804;23.426;2022-10-18T03:03:06;96067.69;;;4.36;100.00
17309;BME280;8772;42.804;23.426;2022-10-18T03:05:35;96065.50;;;4.26;100.00
17309;BME280;8772;42.804;23.426;2022-10-18T03:08:02;96070.38;;;4.24;100.00
17309;BME280;8772;42.804;23.426;2022-10-18T03:10:29;96066.97;;;4.24;100.00
17309;BME280;8772;42.804;23.426;2022-10-18T03:12:55;96058.81;;;4.17;100.00
17309;BME280;8772;42.804;23.426;2022-10-18T03:15:22;96058.59;;;4.10;100.00
17309;BME280;8772;42.804;23.426;2022-10-18T03:17:49;96058.94;;;4.09;100.00
17309;BME280;8772;42.804;23.426;2022-10-18T03:20:16;96063.25;;;3.89;100.00
17309;BME280;8772;42.804;23.426;2022-10-18T03:22:45;96068.00;;;3.96;100.00
17309;BME280;8772;42.804;23.426;2022-10-18T03:25:12;96073.59;;;3.82;100.00
17309;BME280;8772;42.804;23.426;2022-10-18T03:27:39;96064.44;;;3.80;100.00
17309;BME280;8772;42.804;23.426;2022-10-18T03:30:07;96068.88;;;3.88;100.00
17309;BME280;8772;42.804;23.426;2022-10-18T03:32:36;96064.00;;;3.90;100.00
17309;BME280;8772;42.804;23.426;2022-10-18T03:35:03;96062.91;;;3.79;100.00
17309;BME280;8772;42.804;23.426;2022-10-18T03:37:30;96070.66;;;3.84;100.00
17309;BME280;8772;42.804;23.426;2022-10-18T03:39:58;96066.53;;;3.86;100.00
17309;BME280;8772;42.804;23.426;2022-10-18T03:42:25;96073.72;;;3.86;100.00
17309;BME280;8772;42.804;23.426;2022-10-18T03:44:52;96072.38;;;3.80;100.00
17309;BME280;8772;42.804;23.426;2022-10-18T03:47:19;96081.09;;;3.80;100.00
17309;BME280;8772;42.804;23.426;2022-10-18T03:49:46;96081.00;;;3.77;100.00
17309;BME280;8772;42.804;23.426;2022-10-18T03:52:13;96077.91;;;3.75;100.00
17309;BME280;8772;42.804;23.426;2022-10-18T03:54:40;96080.88;;;3.73;100.00
17309;BME280;8772;42.804;23.426;2022-10-18T03:57:08;96089.72;;;3.65;100.00
17309;BME280;8772;42.804;23.426;2022-10-18T03:59:35;96082.19;;;3.43;100.00
17309;BME280;8772;42.804;23.426;2022-10-18T04:02:02;96090.69;;;3.49;100.00
17309;BME280;8772;42.804;23.426;2022-10-18T04:04:29;96090.44;;;3.42;100.00
17309;BME280;8772;42.804;23.426;2022-10-18T04:06:56;96089.34;;;3.31;100.00
17309;BME280;8772;42.804;23.426;2022-10-18T04:09:23;96083.28;;;3.30;100.00
17309;BME280;8772;42.804;23.426;2022-10-18T04:11:53;96080.94;;;3.29;100.00
17309;BME280;8772;42.804;23.426;2022-10-18T04:14:22;96082.72;;;3.25;100.00
17309;BME280;8772;42.804;23.426;2022-10-18T04:16:49;96082.41;;;3.26;100.00
17309;BME280;8772;42.804;23.426;2022-10-18T04:19:16;96079.31;;;3.24;100.00
17309;BME280;8772;42.804;23.426;2022-10-18T04:21:43;96077.66;;;3.20;100.00
17309;BME280;8772;42.804;23.426;2022-10-18T04:24:10;96076.16;;;3.10;100.00
17309;BME280;8772;42.804;23.426;2022-10-18T04:26:36;96070.13;;;3.10;100.00
17309;BME280;8772;42.804;23.426;2022-10-18T04:29:03;96078.94;;;3.14;100.00
17309;BME280;8772;42.804;23.426;2022-10-18T04:31:32;96071.91;;;3.06;100.00
17309;BME280;8772;42.804;23.426;2022-10-18T04:33:59;96068.22;;;2.98;100.00
17309;BME280;8772;42.804;23.426;2022-10-18T04:36:27;96067.91;;;3.00;100.00
17309;BME280;8772;42.804;23.426;2022-10-18T04:38:53;96072.53;;;3.03;100.00
17309;BME280;8772;42.804;23.426;2022-10-18T04:41:20;96062.94;;;2.98;100.00
17309;BME280;8772;42.804;23.426;2022-10-18T04:43:47;96080.44;;;3.03;100.00
17309;BME280;8772;42.804;23.426;2022-10-18T04:46:14;96073.75;;;3.05;100.00
17309;BME280;8772;42.804;23.426;2022-10-18T04:48:42;96068.16;;;3.07;100.00
17309;BME280;8772;42.804;23.426;2022-10-18T04:51:09;96067.06;;;3.08;100.00
17309;BME280;8772;42.804;23.426;2022-10-18T04:53:36;96076.06;;;3.07;100.00
17309;BME280;8772;42.804;23.426;2022-10-18T04:56:03;96075.38;;;2.98;100.00
17309;BME280;8772;42.804;23.426;2022-10-18T04:58:30;96071.66;;;2.99;100.00
17309;BME280;8772;42.804;23.426;2022-10-18T05:00:58;96073.19;;;3.00;100.00
17309;BME280;8772;42.804;23.426;2022-10-18T05:03:25;96063.06;;;3.02;100.00
17309;BME280;8772;42.804;23.426;2022-10-18T05:05:53;96064.72;;;3.06;100.00
17309;BME280;8772;42.804;23.426;2022-10-18T05:08:20;96065.03;;;3.05;100.00
17309;BME280;8772;42.804;23.426;2022-10-18T05:10:46;96067.25;;;3.03;100.00
17309;BME280;8772;42.804;23.426;2022-10-18T05:13:13;96066.63;;;3.06;100.00
17309;BME280;8772;42.804;23.426;2022-10-18T05:15:40;96061.75;;;3.08;100.00
17309;BME280;8772;42.804;23.426;2022-10-18T05:18:07;96065.16;;;3.08;100.00
17309;BME280;8772;42.804;23.426;2022-10-18T05:20:34;96061.06;;;2.99;100.00
17309;BME280;8772;42.804;23.426;2022-10-18T05:23:02;96052.31;;;3.07;100.00
17309;BME280;8772;42.804;23.426;2022-10-18T05:25:29;96060.78;;;3.12;100.00
17309;BME280;8772;42.804;23.426;2022-10-18T05:27:56;96066.63;;;3.18;100.00
17309;BME280;8772;42.804;23.426;2022-10-18T05:30:23;96064.09;;;3.21;100.00
17309;BME280;8772;42.804;23.426;2022-10-18T05:32:51;96063.34;;;3.21;100.00
17309;BME280;8772;42.804;23.426;2022-10-18T05:35:18;96070.59;;;3.24;100.00
17309;BME280;8772;42.804;23.426;2022-10-18T05:37:45;96063.09;;;3.26;100.00
17309;BME280;8772;42.804;23.426;2022-10-18T05:40:13;96070.06;;;3.30;100.00
17309;BME280;8772;42.804;23.426;2022-10-18T05:42:40;96067.53;;;3.34;100.00
17309;BME280;8772;42.804;23.426;2022-10-18T05:45:08;96061.28;;;3.38;100.00
17309;BME280;8772;42.804;23.426;2022-10-18T05:47:34;96066.31;;;3.43;100.00
17309;BME280;8772;42.804;23.426;2022-10-18T05:50:02;96062.69;;;3.48;100.00
17309;BME280;8772;42.804;23.426;2022-10-18T05:52:29;96066.88;;;3.49;100.00
17309;BME280;8772;42.804;23.426;2022-10-18T05:54:55;96065.34;;;3.60;100.00
17309;BME280;8772;42.804;23.426;2022-10-18T05:57:24;96060.94;;;3.64;100.00
17309;BME280;8772;42.804;23.426;2022-10-18T05:59:50;96059.19;;;3.68;100.00
17309;BME280;8772;42.804;23.426;2022-10-18T06:02:17;96063.38;;;3.69;100.00
17309;BME280;8772;42.804;23.426;2022-10-18T06:04:44;96074.72;;;3.81;100.00
17309;BME280;8772;42.804;23.426;2022-10-18T06:07:11;96066.22;;;3.88;100.00
17309;BME280;8772;42.804;23.426;2022-10-18T06:09:38;96075.03;;;4.04;100.00
17309;BME280;8772;42.804;23.426;2022-10-18T06:12:06;96071.19;;;4.01;100.00
17309;BME280;8772;42.804;23.426;2022-10-18T06:14:35;96067.06;;;4.16;100.00
17309;BME280;8772;42.804;23.426;2022-10-18T06:17:02;96070.78;;;4.26;100.00
17309;BME280;8772;42.804;23.426;2022-10-18T06:19:29;96075.19;;;4.34;100.00
17309;BME280;8772;42.804;23.426;2022-10-18T06:21:55;96075.38;;;4.41;100.00
17309;BME280;8772;42.804;23.426;2022-10-18T06:24:22;96072.28;;;4.51;100.00
17309;BME280;8772;42.804;23.426;2022-10-18T06:26:49;96077.88;;;4.62;100.00
17309;BME280;8772;42.804;23.426;2022-10-18T06:29:16;96072.63;;;4.77;100.00
17309;BME280;8772;42.804;23.426;2022-10-18T06:31:44;96077.69;;;4.82;100.00
17309;BME280;8772;42.804;23.426;2022-10-18T06:34:11;96077.97;;;4.93;100.00
17309;BME280;8772;42.804;23.426;2022-10-18T06:36:38;96078.34;;;5.07;100.00
17309;BME280;8772;42.804;23.426;2022-10-18T06:39:05;96077.75;;;5.13;100.00
17309;BME280;8772;42.804;23.426;2022-10-18T06:41:32;96076.75;;;5.18;100.00
17309;BME280;8772;42.804;23.426;2022-10-18T06:43:59;96074.13;;;5.33;100.00
17309;BME280;8772;42.804;23.426;2022-10-18T06:46:31;96081.31;;;5.48;100.00
17309;BME280;8772;42.804;23.426;2022-10-18T06:49:00;96076.25;;;5.59;100.00
17309;BME280;8772;42.804;23.426;2022-10-18T06:51:27;96074.31;;;5.71;100.00
17309;BME280;8772;42.804;23.426;2022-10-18T06:53:54;96073.81;;;5.81;100.00
17309;BME280;8772;42.804;23.426;2022-10-18T06:56:20;96068.75;;;5.92;100.00
17309;BME280;8772;42.804;23.426;2022-10-18T06:58:47;96078.06;;;6.01;100.00
17309;BME280;8772;42.804;23.426;2022-10-18T07:01:16;96064.59;;;6.10;100.00
17309;BME280;8772;42.804;23.426;2022-10-18T07:03:43;96062.59;;;6.22;100.00
17309;BME280;8772;42.804;23.426;2022-10-18T07:06:16;96058.88;;;6.42;100.00
17309;BME280;8772;42.804;23.426;2022-10-18T07:08:44;96061.81;;;6.56;100.00
17309;BME280;8772;42.804;23.426;2022-10-18T07:11:14;96067.41;;;6.70;100.00
17309;BME280;8772;42.804;23.426;2022-10-18T07:13:41;96064.75;;;6.89;100.00
17309;BME280;8772;42.804;23.426;2022-10-18T07:16:09;96065.78;;;7.03;100.00
17309;BME280;8772;42.804;23.426;2022-10-18T07:18:38;96066.13;;;7.21;100.00
17309;BME280;8772;42.804;23.426;2022-10-18T07:21:07;96067.19;;;7.39;100.00
17309;BME280;8772;42.804;23.426;2022-10-18T07:23:37;96066.72;;;7.56;100.00
17309;BME280;8772;42.804;23.426;2022-10-18T07:26:11;96056.38;;;7.73;100.00
17309;BME280;8772;42.804;23.426;2022-10-18T07:28:39;96060.13;;;7.95;100.00
17309;BME280;8772;42.804;23.426;2022-10-18T07:31:06;96060.00;;;8.14;100.00
17309;BME280;8772;42.804;23.426;2022-10-18T07:33:34;96056.41;;;8.25;100.00
17309;BME280;8772;42.804;23.426;2022-10-18T07:36:03;96049.03;;;8.41;100.00
17309;BME280;8772;42.804;23.426;2022-10-18T07:38:31;96047.38;;;8.63;100.00
17309;BME280;8772;42.804;23.426;2022-10-18T07:41:00;96038.91;;;8.86;100.00
17309;BME280;8772;42.804;23.426;2022-10-18T07:43:28;96037.56;;;9.03;100.00
17309;BME280;8772;42.804;23.426;2022-10-18T07:45:57;96041.63;;;9.26;100.00
17309;BME280;8772;42.804;23.426;2022-10-18T07:48:24;96039.94;;;9.48;100.00
17309;BME280;8772;42.804;23.426;2022-10-18T07:50:51;96035.94;;;9.71;100.00
17309;BME280;8772;42.804;23.426;2022-10-18T07:53:18;96035.38;;;9.99;100.00
17309;BME280;8772;42.804;23.426;2022-10-18T07:55:45;96031.72;;;10.17;100.00
17309;BME280;8772;42.804;23.426;2022-10-18T07:58:13;96033.34;;;10.39;100.00
17309;BME280;8772;42.804;23.426;2022-10-18T08:00:40;96032.00;;;10.66;100.00
17309;BME280;8772;42.804;23.426;2022-10-18T08:03:07;96025.94;;;10.87;100.00
17309;BME280;8772;42.804;23.426;2022-10-18T08:05:34;96032.13;;;11.08;100.00
17309;BME280;8772;42.804;23.426;2022-10-18T08:08:04;96035.22;;;11.27;100.00
17309;BME280;8772;42.804;23.426;2022-10-18T08:10:33;96025.31;;;11.45;100.00
17309;BME280;8772;42.804;23.426;2022-10-18T08:13:01;96023.06;;;11.65;100.00
17309;BME280;8772;42.804;23.426;2022-10-18T08:15:29;96021.91;;;11.94;100.00
17309;BME280;8772;42.804;23.426;2022-10-18T08:17:56;96017.25;;;12.26;100.00
17309;BME280;8772;42.804;23.426;2022-10-18T08:20:23;96012.97;;;12.60;97.76
17309;BME280;8772;42.804;23.426;2022-10-18T08:22:50;96007.91;;;12.79;88.27
17309;BME280;8772;42.804;23.426;2022-10-18T08:25:17;96010.53;;;12.97;89.04
17309;BME280;8772;42.804;23.426;2022-10-18T08:27:44;96004.34;;;13.10;85.73
17309;BME280;8772;42.804;23.426;2022-10-18T08:30:11;96002.19;;;13.45;88.44
17309;BME280;8772;42.804;23.426;2022-10-18T08:32:40;95992.50;;;13.58;81.64
17309;BME280;8772;42.804;23.426;2022-10-18T08:35:07;95991.09;;;13.87;82.33
17309;BME280;8772;42.804;23.426;2022-10-18T08:37:34;95975.84;;;14.21;84.21
17309;BME280;8772;42.804;23.426;2022-10-18T08:40:01;95981.09;;;14.32;78.40
17309;BME280;8772;42.804;23.426;2022-10-18T08:42:43;95971.34;;;14.78;80.95
17309;BME280;8772;42.804;23.426;2022-10-18T08:45:14;95974.84;;;15.05;82.26
17309;BME280;8772;42.804;23.426;2022-10-18T08:47:44;95970.50;;;15.41;74.38
17309;BME280;8772;42.804;23.426;2022-10-18T08:50:16;95972.28;;;15.74;71.51
17309;BME280;8772;42.804;23.426;2022-10-18T08:52:48;95967.97;;;15.80;66.67
17309;BME280;8772;42.804;23.426;2022-10-18T08:55:21;95961.75;;;16.06;71.23
17309;BME280;8772;42.804;23.426;2022-10-18T08:57:50;95964.84;;;16.47;68.19
17309;BME280;8772;42.804;23.426;2022-10-18T09:00:19;95958.50;;;16.57;66.42
17309;BME280;8772;42.804;23.426;2022-10-18T09:03:01;95955.31;;;16.62;61.84
17309;BME280;8772;42.804;23.426;2022-10-18T09:05:38;95952.03;;;16.90;66.22
17309;BME280;8772;42.804;23.426;2022-10-18T09:08:36;95954.78;;;17.06;62.34
17309;BME280;8772;42.804;23.426;2022-10-18T09:11:22;95960.28;;;17.18;61.96
17309;BME280;8772;42.804;23.426;2022-10-18T09:16:49;95945.91;;;17.73;60.23
17309;BME280;8772;42.804;23.426;2022-10-18T09:19:40;95950.97;;;18.02;58.42
17309;BME280;8772;42.804;23.426;2022-10-18T09:22:13;95947.94;;;17.84;54.91
17309;BME280;8772;42.804;23.426;2022-10-18T09:24:45;95934.13;;;18.11;56.32
17309;BME280;8772;42.804;23.426;2022-10-18T09:27:18;95945.72;;;17.95;53.27
17309;BME280;8772;42.804;23.426;2022-10-18T09:29:55;95940.28;;;18.11;55.05
17309;BME280;8772;42.804;23.426;2022-10-18T09:32:32;95937.28;;;18.38;53.61
17309;BME280;8772;42.804;23.426;2022-10-18T09:35:12;95928.84;;;18.36;52.81
17309;BME280;8772;42.804;23.426;2022-10-18T09:37:40;95928.94;;;18.32;50.29
17309;BME280;8772;42.804;23.426;2022-10-18T09:40:14;95924.63;;;18.47;52.66
17309;BME280;8772;42.804;23.426;2022-10-18T09:42:51;95920.47;;;18.30;48.99
17309;BME280;8772;42.804;23.426;2022-10-18T09:45:24;95904.88;;;18.34;50.39
17309;BME280;8772;42.804;23.426;2022-10-18T09:47:58;95909.63;;;18.71;49.53
17309;BME280;8772;42.804;23.426;2022-10-18T09:50:34;95906.94;;;18.71;46.62
17309;BME280;8772;42.804;23.426;2022-10-18T09:53:09;95911.50;;;18.87;46.73
17309;BME280;8772;42.804;23.426;2022-10-18T09:55:45;95908.19;;;19.08;46.66
17309;BME280;8772;42.804;23.426;2022-10-18T09:58:19;95909.34;;;18.94;43.22
17309;BME280;8772;42.804;23.426;2022-10-18T10:00:50;95902.75;;;19.08;44.71
17309;BME280;8772;42.804;23.426;2022-10-18T10:03:18;95899.28;;;19.07;42.87
17309;BME280;8772;42.804;23.426;2022-10-18T10:06:00;95890.28;;;19.35;44.56
17309;BME280;8772;42.804;23.426;2022-10-18T10:08:31;95886.81;;;19.47;41.91
17309;BME280;8772;42.804;23.426;2022-10-18T10:10:58;95880.63;;;19.34;41.49
17309;BME280;8772;42.804;23.426;2022-10-18T10:13:25;95879.59;;;19.66;44.11
17309;BME280;8772;42.804;23.426;2022-10-18T10:15:53;95862.84;;;19.46;41.00
17309;BME280;8772;42.804;23.426;2022-10-18T10:18:23;95861.97;;;19.49;40.53
17309;BME280;8772;42.804;23.426;2022-10-18T10:20:53;95854.13;;;19.51;41.83
17309;BME280;8772;42.804;23.426;2022-10-18T10:23:24;95849.44;;;19.64;40.96
17309;BME280;8772;42.804;23.426;2022-10-18T10:25:54;95840.59;;;19.85;40.90
17309;BME280;8772;42.804;23.426;2022-10-18T10:28:23;95844.53;;;20.05;41.67
17309;BME280;8772;42.804;23.426;2022-10-18T10:30:51;95837.53;;;20.38;40.53
17309;BME280;8772;42.804;23.426;2022-10-18T10:33:31;95822.78;;;20.48;37.91
17309;BME280;8772;42.804;23.426;2022-10-18T10:36:00;95821.69;;;20.15;34.69
17309;BME280;8772;42.804;23.426;2022-10-18T10:38:29;95805.44;;;20.24;35.69
17309;BME280;8772;42.804;23.426;2022-10-18T10:40:56;95809.41;;;20.32;36.18
17309;BME280;8772;42.804;23.426;2022-10-18T10:43:25;95799.72;;;20.52;36.05
17309;BME280;8772;42.804;23.426;2022-10-18T10:45:59;95791.03;;;20.66;36.11
17309;BME280;8772;42.804;23.426;2022-10-18T10:48:30;95797.00;;;20.52;33.91
17309;BME280;8772;42.804;23.426;2022-10-18T10:51:03;95787.16;;;20.46;34.50
17309;BME280;8772;42.804;23.426;2022-10-18T10:53:49;95784.88;;;20.75;35.77
17309;BME280;8772;42.804;23.426;2022-10-18T10:56:23;95774.69;;;20.88;34.29
17309;BME280;8772;42.804;23.426;2022-10-18T10:58:51;95777.28;;;20.70;35.07
17309;BME280;8772;42.804;23.426;2022-10-18T11:01:29;95778.56;;;20.78;32.91
17309;BME280;8772;42.804;23.426;2022-10-18T11:03:59;95764.19;;;20.77;35.73
17309;BME280;8772;42.804;23.426;2022-10-18T11:06:42;95763.28;;;21.20;34.71
17309;BME280;8772;42.804;23.426;2022-10-18T11:09:24;95762.13;;;21.39;35.01
17309;BME280;8772;42.804;23.426;2022-10-18T11:12:02;95759.97;;;21.25;32.82
17309;BME280;8772;42.804;23.426;2022-10-18T11:14:35;95752.25;;;21.41;34.36
17309;BME280;8772;42.804;23.426;2022-10-18T11:17:09;95744.56;;;21.58;32.59
17309;BME280;8772;42.804;23.426;2022-10-18T11:19:48;95734.00;;;21.51;31.68
17309;BME280;8772;42.804;23.426;2022-10-18T11:22:24;95731.00;;;21.67;33.26
17309;BME280;8772;42.804;23.426;2022-10-18T11:24:53;95733.69;;;21.85;32.79
17309;BME280;8772;42.804;23.426;2022-10-18T11:27:24;95724.00;;;21.84;31.47
17309;BME280;8772;42.804;23.426;2022-10-18T11:30:03;95725.19;;;22.10;31.70
17309;BME280;8772;42.804;23.426;2022-10-18T11:32:40;95725.03;;;22.13;28.84
17309;BME280;8772;42.804;23.426;2022-10-18T11:35:22;95715.25;;;21.89;29.41
17309;BME280;8772;42.804;23.426;2022-10-18T11:38:04;95702.53;;;21.41;28.85
17309;BME280;8772;42.804;23.426;2022-10-18T11:40:44;95703.91;;;21.63;30.07
17309;BME280;8772;42.804;23.426;2022-10-18T11:43:19;95691.75;;;22.09;32.00
17309;BME280;8772;42.804;23.426;2022-10-18T11:45:55;95681.91;;;22.03;28.45
17309;BME280;8772;42.804;23.426;2022-10-18T11:48:53;95687.66;;;21.96;29.50
17309;BME280;8772;42.804;23.426;2022-10-18T11:51:29;95684.91;;;22.14;27.61
17309;BME280;8772;42.804;23.426;2022-10-18T11:54:27;95683.03;;;22.29;31.07
17309;BME280;8772;42.804;23.426;2022-10-18T11:59:50;95667.66;;;22.81;31.18
17309;BME280;8772;42.804;23.426;2022-10-18T12:02:36;95664.53;;;22.97;27.96
17309;BME280;8772;42.804;23.426;2022-10-18T12:05:08;95652.81;;;23.29;29.86
17309;BME280;8772;42.804;23.426;2022-10-18T12:07:39;95660.59;;;23.22;27.34
17309;BME280;8772;42.804;23.426;2022-10-18T12:10:15;95648.03;;;23.39;27.68
17309;BME280;8772;42.804;23.426;2022-10-18T12:12:48;95646.28;;;23.50;25.42
17309;BME280;8772;42.804;23.426;2022-10-18T12:15:19;95636.59;;;23.78;25.91
17309;BME280;8772;42.804;23.426;2022-10-18T12:17:50;95632.22;;;23.57;24.79
17309;BME280;8772;42.804;23.426;2022-10-18T12:20:22;95628.13;;;23.91;25.66
17309;BME280;8772;42.804;23.426;2022-10-18T12:22:56;95629.56;;;23.48;23.06
17309;BME280;8772;42.804;23.426;2022-10-18T12:25:27;95623.19;;;23.51;23.37
17309;BME280;8772;42.804;23.426;2022-10-18T12:27:58;95623.00;;;23.55;24.40
17309;BME280;8772;42.804;23.426;2022-10-18T12:30:32;95613.38;;;23.30;24.03
17309;BME280;8772;42.804;23.426;2022-10-18T12:33:05;95610.53;;;23.25;22.64
17309;BME280;8772;42.804;23.426;2022-10-18T12:35:45;95617.22;;;23.00;22.68
17309;BME280;8772;42.804;23.426;2022-10-18T12:38:19;95607.88;;;22.92;23.46
17309;BME280;8772;42.804;23.426;2022-10-18T12:40:51;95600.00;;;23.32;24.58
17309;BME280;8772;42.804;23.426;2022-10-18T12:43:21;95608.53;;;23.63;25.95
17309;BME280;8772;42.804;23.426;2022-10-18T12:45:52;95591.75;;;23.99;26.10
17309;BME280;8772;42.804;23.426;2022-10-18T12:48:31;95596.09;;;23.62;23.76
17309;BME280;8772;42.804;23.426;2022-10-18T12:51:04;95586.28;;;23.70;25.00
17309;BME280;8772;42.804;23.426;2022-10-18T12:53:32;95585.31;;;23.73;25.64
17309;BME280;8772;42.804;23.426;2022-10-18T12:56:39;95590.44;;;23.95;24.62
17309;BME280;8772;42.804;23.426;2022-10-18T13:02:27;95576.66;;;23.60;24.09
17309;BME280;8772;42.804;23.426;2022-10-18T13:04:54;95574.59;;;23.55;24.91
17309;BME280;8772;42.804;23.426;2022-10-18T13:07:40;95573.81;;;23.26;23.77
17309;BME280;8772;42.804;23.426;2022-10-18T13:10:37;95577.56;;;23.14;24.29
17309;BME280;8772;42.804;23.426;2022-10-18T13:13:40;95575.81;;;23.25;26.46
17309;BME280;8772;42.804;23.426;2022-10-18T13:16:27;95558.97;;;23.41;26.05
17309;BME280;8772;42.804;23.426;2022-10-18T13:18:57;95561.03;;;23.61;25.30
17309;BME280;8772;42.804;23.426;2022-10-18T13:21:32;95556.44;;;23.52;27.83
17309;BME280;8772;42.804;23.426;2022-10-18T13:24:28;95553.31;;;23.74;25.36
17309;BME280;8772;42.804;23.426;2022-10-18T13:27:16;95556.78;;;23.45;25.28
17309;BME280;8772;42.804;23.426;2022-10-18T13:29:58;95553.09;;;23.19;25.80
17309;BME280;8772;42.804;23.426;2022-10-18T13:32:31;95551.75;;;23.00;25.08
17309;BME280;8772;42.804;23.426;2022-10-18T13:35:00;95542.25;;;22.72;25.47
17309;BME280;8772;42.804;23.426;2022-10-18T13:37:28;95558.84;;;22.83;26.08